createdAt,value
2022-10-08T00:01:22.391Z,15.11
2022-10-08T00:03:52.869Z,15.04
2022-10-08T00:06:21.920Z,15.15
2022-10-08T00:08:51.114Z,14.93
2022-10-08T00:11:22.355Z,15.01
2022-10-08T00:13:51.109Z,15.05
2022-10-08T00:16:22.694Z,15.03
2022-10-08T00:18:52.097Z,15.04
2022-10-08T00:21:21.874Z,15.10
2022-10-08T00:23:51.272Z,15.01
2022-10-08T00:26:23.578Z,15.05
2022-10-08T00:28:52.322Z,15.04
2022-10-08T00:31:23.456Z,14.96
2022-10-08T00:33:51.637Z,15.08
2022-10-08T00:36:19.821Z,14.99
2022-10-08T00:38:49.225Z,15.02
2022-10-08T00:41:20.764Z,14.72
2022-10-08T00:43:49.751Z,15.00
2022-10-08T00:46:27.833Z,14.93
2022-10-08T00:48:58.428Z,14.87
2022-10-08T00:51:26.534Z,14.85
2022-10-08T00:53:54.683Z,14.94
2022-10-08T00:56:24.307Z,14.58
2022-10-08T00:58:52.576Z,14.67
2022-10-08T01:01:20.798Z,14.58
2022-10-08T01:03:50.096Z,14.23
2022-10-08T01:06:25.041Z,14.37
2022-10-08T01:08:56.326Z,14.41
2022-10-08T01:11:35.167Z,14.64
2022-10-08T01:14:07.405Z,14.37
2022-10-08T01:16:43.604Z,14.44
2022-10-08T01:19:24.142Z,14.65
2022-10-08T01:22:00.816Z,14.25
2022-10-08T01:24:49.230Z,14.52
2022-10-08T01:27:24.558Z,14.45
2022-10-08T01:29:53.770Z,14.43
2022-10-08T01:32:23.591Z,14.43
2022-10-08T01:34:54.753Z,14.85
2022-10-08T01:37:25.288Z,14.66
2022-10-08T01:39:55.185Z,14.63
2022-10-08T01:42:26.024Z,14.53
2022-10-08T01:44:57.058Z,14.59
2022-10-08T01:47:26.657Z,14.62
2022-10-08T01:49:56.332Z,14.76
2022-10-08T01:52:26.705Z,14.66
2022-10-08T01:54:56.930Z,14.40
2022-10-08T01:57:27.718Z,14.63
2022-10-08T01:59:59.108Z,14.52
2022-10-08T02:02:27.361Z,14.42
2022-10-08T02:04:56.756Z,14.31
2022-10-08T02:07:26.835Z,14.24
2022-10-08T02:10:06.111Z,14.59
2022-10-08T02:12:35.889Z,14.38
2022-10-08T02:15:04.765Z,14.39
2022-10-08T02:17:38.148Z,14.48
2022-10-08T02:20:12.345Z,14.65
2022-10-08T02:22:42.617Z,14.54
2022-10-08T02:25:13.816Z,14.62
2022-10-08T02:27:52.280Z,14.42
2022-10-08T02:30:20.594Z,14.41
2022-10-08T02:32:51.027Z,14.26
2022-10-08T02:35:22.837Z,14.48
2022-10-08T02:37:55.925Z,14.30
2022-10-08T02:40:24.852Z,14.46
2022-10-08T02:42:57.352Z,14.45
2022-10-08T02:45:28.014Z,14.45
2022-10-08T02:48:06.300Z,14.33
2022-10-08T02:50:35.771Z,14.41
2022-10-08T02:53:04.089Z,14.20
2022-10-08T02:55:38.753Z,14.37
2022-10-08T02:58:09.719Z,14.18
2022-10-08T03:00:40.472Z,14.08
2022-10-08T03:03:11.210Z,14.14
2022-10-08T03:05:39.812Z,14.30
2022-10-08T03:08:08.717Z,13.98
2022-10-08T03:10:39.098Z,13.77
2022-10-08T03:13:08.765Z,13.92
2022-10-08T03:15:37.762Z,13.81
2022-10-08T03:18:09.158Z,13.79
2022-10-08T03:20:41.182Z,13.81
2022-10-08T03:23:08.972Z,13.62
2022-10-08T03:25:36.625Z,13.69
2022-10-08T03:28:04.388Z,14.04
2022-10-08T03:30:33.535Z,13.83
2022-10-08T03:33:01.247Z,13.79
2022-10-08T03:35:29.593Z,13.78
2022-10-08T03:37:57.248Z,13.78
2022-10-08T03:40:25.039Z,13.53
2022-10-08T03:42:52.808Z,13.72
2022-10-08T03:45:20.483Z,13.84
2022-10-08T03:47:52.713Z,13.58
2022-10-08T03:50:20.760Z,13.84
2022-10-08T03:52:48.926Z,13.65
2022-10-08T03:55:17.100Z,13.94
2022-10-08T03:57:44.750Z,13.87
2022-10-08T04:00:13.513Z,13.80
2022-10-08T04:02:41.249Z,13.59
2022-10-08T04:05:10.613Z,13.61
2022-10-08T04:07:38.262Z,13.63
2022-10-08T04:10:06.636Z,13.90
2022-10-08T04:12:34.293Z,13.57
2022-10-08T04:15:01.919Z,13.59
2022-10-08T04:17:30.975Z,13.44
2022-10-08T04:19:58.631Z,13.78
2022-10-08T04:22:27.634Z,13.80
2022-10-08T04:24:55.275Z,13.89
2022-10-08T04:27:22.912Z,13.81
2022-10-08T04:29:50.557Z,13.83
2022-10-08T04:32:20.945Z,13.73
2022-10-08T04:34:48.608Z,13.52
2022-10-08T04:37:16.430Z,13.42
2022-10-08T04:39:45.395Z,13.58
2022-10-08T04:42:13.044Z,13.70
2022-10-08T04:44:40.677Z,13.62
2022-10-08T04:47:08.373Z,13.83
2022-10-08T04:49:36.141Z,13.75
2022-10-08T04:52:04.388Z,13.66
2022-10-08T04:54:32.036Z,13.64
2022-10-08T04:57:01.039Z,13.49
2022-10-08T04:59:28.725Z,13.68
2022-10-08T05:01:59.618Z,13.56
2022-10-08T05:04:27.313Z,13.51
2022-10-08T05:06:55.043Z,13.39
2022-10-08T05:09:22.883Z,13.52
2022-10-08T05:11:50.758Z,13.58
2022-10-08T05:14:19.740Z,13.66
2022-10-08T05:16:47.435Z,13.76
2022-10-08T05:19:15.129Z,13.90
2022-10-08T05:21:42.794Z,13.73
2022-10-08T05:24:12.416Z,13.51
2022-10-08T05:29:33.841Z,13.59
2022-10-08T05:32:01.487Z,13.87
2022-10-08T05:34:29.597Z,13.70
2022-10-08T05:36:57.251Z,13.49
2022-10-08T05:39:25.063Z,13.63
2022-10-08T05:41:53.204Z,13.66
2022-10-08T05:44:21.145Z,13.51
2022-10-08T05:46:50.244Z,13.44
2022-10-08T05:49:20.205Z,13.69
2022-10-08T05:51:47.977Z,13.65
2022-10-08T05:54:15.885Z,13.49
2022-10-08T05:56:43.623Z,13.86
2022-10-08T05:59:16.637Z,13.63
2022-10-08T06:01:44.386Z,13.55
2022-10-08T06:04:13.677Z,13.70
2022-10-08T06:06:42.981Z,13.63
2022-10-08T06:09:13.163Z,13.88
2022-10-08T06:11:40.835Z,13.93
2022-10-08T06:14:08.840Z,13.98
2022-10-08T06:16:36.661Z,14.02
2022-10-08T06:19:05.287Z,13.63
2022-10-08T06:21:35.159Z,13.60
2022-10-08T06:24:04.966Z,13.73
2022-10-08T06:26:36.152Z,13.70
2022-10-08T06:29:06.057Z,13.83
2022-10-08T06:31:34.296Z,13.60
2022-10-08T06:34:03.937Z,13.67
2022-10-08T06:36:32.061Z,13.53
2022-10-08T06:39:05.081Z,13.61
2022-10-08T06:41:34.669Z,13.74
2022-10-08T06:44:04.038Z,13.64
2022-10-08T06:46:32.594Z,13.65
2022-10-08T06:49:01.355Z,13.65
2022-10-08T06:51:32.981Z,13.62
2022-10-08T06:54:07.516Z,13.86
2022-10-08T06:56:37.021Z,13.85
2022-10-08T06:59:10.121Z,13.61
2022-10-08T07:01:40.156Z,13.69
2022-10-08T07:04:08.870Z,13.95
2022-10-08T07:06:36.676Z,13.78
2022-10-08T07:09:07.372Z,13.87
2022-10-08T07:11:35.291Z,13.52
2022-10-08T07:14:04.860Z,13.77
2022-10-08T07:16:32.583Z,13.65
2022-10-08T07:19:00.424Z,13.74
2022-10-08T07:21:29.643Z,13.73
2022-10-08T07:23:57.361Z,13.56
2022-10-08T07:26:28.130Z,13.79
2022-10-08T07:28:57.936Z,13.78
2022-10-08T07:31:27.916Z,13.77
2022-10-08T07:33:56.156Z,13.83
2022-10-08T07:36:24.706Z,13.55
2022-10-08T07:38:54.471Z,13.79
2022-10-08T07:41:22.856Z,13.76
2022-10-08T07:43:53.564Z,13.90
2022-10-08T07:46:21.824Z,13.95
2022-10-08T07:48:50.621Z,13.93
2022-10-08T07:51:20.932Z,13.97
2022-10-08T07:53:48.642Z,14.17
2022-10-08T07:56:18.273Z,14.10
2022-10-08T07:58:47.180Z,14.14
2022-10-08T08:01:19.559Z,14.19
2022-10-08T08:03:47.489Z,14.32
2022-10-08T08:06:16.713Z,14.51
2022-10-08T08:08:45.711Z,14.54
2022-10-08T08:11:14.688Z,14.56
2022-10-08T08:13:43.159Z,14.54
2022-10-08T08:16:12.698Z,14.45
2022-10-08T08:18:43.357Z,14.61
2022-10-08T08:21:12.777Z,14.76
2022-10-08T08:23:42.446Z,14.88
2022-10-08T08:26:11.687Z,14.80
2022-10-08T08:28:39.821Z,14.94
2022-10-08T08:31:09.787Z,14.99
2022-10-08T08:33:37.453Z,14.96
2022-10-08T08:36:07.255Z,14.96
2022-10-08T08:38:36.075Z,15.04
2022-10-08T08:41:12.771Z,15.12
2022-10-08T08:43:41.853Z,15.05
2022-10-08T08:46:10.808Z,14.95
2022-10-08T08:48:39.488Z,15.18
2022-10-08T08:51:08.497Z,15.23
2022-10-08T08:53:36.883Z,15.22
2022-10-08T08:56:06.468Z,15.38
2022-10-08T08:58:39.023Z,15.37
2022-10-08T09:01:14.778Z,15.32
2022-10-08T09:03:44.336Z,15.39
2022-10-08T09:06:18.380Z,15.48
2022-10-08T09:08:49.433Z,15.42
2022-10-08T09:11:19.456Z,15.43
2022-10-08T09:13:49.625Z,15.46
2022-10-08T09:16:18.061Z,15.33
2022-10-08T09:18:47.660Z,15.47
2022-10-08T09:21:17.239Z,15.46
2022-10-08T09:23:45.202Z,15.56
2022-10-08T09:26:16.593Z,15.53
2022-10-08T09:28:46.824Z,15.43
2022-10-08T09:31:22.075Z,15.47
2022-10-08T09:33:59.286Z,15.56
2022-10-08T09:36:35.229Z,15.57
2022-10-08T09:39:06.749Z,15.65
2022-10-08T09:41:34.449Z,15.71
2022-10-08T09:44:14.903Z,15.80
2022-10-08T09:46:43.034Z,15.81
2022-10-08T09:49:29.144Z,15.88
2022-10-08T09:52:00.862Z,15.79
2022-10-08T09:54:30.278Z,15.90
2022-10-08T09:57:00.132Z,16.01
2022-10-08T09:59:29.874Z,15.98
2022-10-08T10:01:57.985Z,15.96
2022-10-08T10:04:33.018Z,15.94
2022-10-08T10:07:02.520Z,15.95
2022-10-08T10:09:38.810Z,16.15
2022-10-08T10:12:12.993Z,16.09
2022-10-08T10:14:44.083Z,16.19
2022-10-08T10:17:17.977Z,16.16
2022-10-08T10:19:50.712Z,16.10
2022-10-08T10:22:24.148Z,16.08
2022-10-08T10:24:57.016Z,16.07
2022-10-08T10:27:30.555Z,16.09
2022-10-08T10:30:05.284Z,16.21
2022-10-08T10:32:36.350Z,16.23
2022-10-08T10:35:10.325Z,16.10
2022-10-08T10:37:45.598Z,16.06
2022-10-08T10:40:31.609Z,16.01
2022-10-08T10:43:11.193Z,15.99
2022-10-08T10:45:41.110Z,16.00
2022-10-08T10:48:10.114Z,16.12
2022-10-08T10:50:41.377Z,16.07
2022-10-08T10:53:17.160Z,15.99
2022-10-08T10:55:54.736Z,16.02
2022-10-08T10:58:33.713Z,15.96
2022-10-08T11:01:09.078Z,15.84
2022-10-08T11:03:43.089Z,15.51
2022-10-08T11:06:38.790Z,15.43
2022-10-08T11:09:11.484Z,15.47
2022-10-08T11:11:42.051Z,15.28
2022-10-08T11:14:18.322Z,15.30
2022-10-08T11:16:56.351Z,15.19
2022-10-08T11:19:37.904Z,15.10
2022-10-08T11:22:10.700Z,15.34
2022-10-08T11:25:00.113Z,15.24
2022-10-08T11:27:39.553Z,15.30
2022-10-08T11:30:12.099Z,15.40
2022-10-08T11:32:40.682Z,15.29
2022-10-08T11:35:20.591Z,15.20
2022-10-08T11:37:51.061Z,15.10
2022-10-08T11:40:28.603Z,15.30
2022-10-08T11:43:02.978Z,15.33
2022-10-08T11:45:34.059Z,15.10
2022-10-08T11:48:06.502Z,15.32
2022-10-08T11:50:38.041Z,15.47
2022-10-08T11:53:14.796Z,15.38
2022-10-08T11:55:52.481Z,15.41
2022-10-08T11:58:23.750Z,15.46
2022-10-08T12:00:54.093Z,15.50
2022-10-08T12:03:24.685Z,15.60
2022-10-08T12:05:54.445Z,15.63
2022-10-08T12:08:53.159Z,15.66
2022-10-08T12:11:55.168Z,15.55
2022-10-08T12:14:48.496Z,15.71
2022-10-08T12:17:17.140Z,15.81
2022-10-08T12:20:19.465Z,15.82
2022-10-08T12:23:34.935Z,15.80
2022-10-08T12:26:13.144Z,15.84
2022-10-08T12:28:50.090Z,15.84
2022-10-08T12:31:35.477Z,15.95
2022-10-08T12:34:13.035Z,16.02
2022-10-08T12:36:45.341Z,16.01
2022-10-08T12:39:19.663Z,16.00
2022-10-08T12:41:54.063Z,16.15
2022-10-08T12:44:31.530Z,16.14
2022-10-08T12:47:05.853Z,16.14
2022-10-08T12:49:36.306Z,16.20
2022-10-08T12:52:07.101Z,16.11
2022-10-08T12:54:35.069Z,16.04
2022-10-08T12:57:11.127Z,15.95
2022-10-08T12:59:41.461Z,16.01
2022-10-08T13:02:28.104Z,16.07
2022-10-08T13:04:55.805Z,15.97
2022-10-08T13:07:28.225Z,16.02
2022-10-08T13:09:56.768Z,16.04
2022-10-08T13:12:26.043Z,15.94
2022-10-08T13:15:00.984Z,15.98
2022-10-08T13:17:29.353Z,16.09
2022-10-08T13:20:09.079Z,16.15
2022-10-08T13:22:36.764Z,16.02
2022-10-08T13:25:06.418Z,16.17
2022-10-08T13:27:35.427Z,16.08
2022-10-08T13:30:23.611Z,16.08
2022-10-08T13:32:51.288Z,16.08
2022-10-08T13:35:21.658Z,16.25
2022-10-08T13:37:53.266Z,16.22
2022-10-08T13:40:22.282Z,16.19
2022-10-08T13:42:52.853Z,16.11
2022-10-08T13:45:22.454Z,16.01
2022-10-08T13:47:51.525Z,16.00
2022-10-08T13:50:20.023Z,16.07
2022-10-08T13:52:51.168Z,15.90
2022-10-08T13:55:23.615Z,16.01
2022-10-08T13:57:52.633Z,15.95
2022-10-08T14:00:20.880Z,15.91
2022-10-08T14:02:48.540Z,16.00
2022-10-08T14:05:16.300Z,15.88
2022-10-08T14:07:44.737Z,15.82
2022-10-08T14:10:14.042Z,15.98
2022-10-08T14:12:41.973Z,16.02
2022-10-08T14:15:12.982Z,16.03
2022-10-08T14:17:40.629Z,15.99
2022-10-08T14:20:09.387Z,16.02
2022-10-08T14:22:39.493Z,16.01
2022-10-08T14:25:08.627Z,15.98
2022-10-08T14:27:36.269Z,15.96
2022-10-08T14:30:04.083Z,16.10
2022-10-08T14:32:33.068Z,16.08
2022-10-08T14:35:00.868Z,16.14
2022-10-08T14:37:28.587Z,16.13
2022-10-08T14:39:56.318Z,16.17
2022-10-08T14:42:24.116Z,16.26
2022-10-08T14:44:53.173Z,16.28
2022-10-08T14:47:20.964Z,16.23
2022-10-08T14:49:50.061Z,16.13
2022-10-08T14:52:17.739Z,15.94
2022-10-08T14:54:45.440Z,15.82
2022-10-08T14:57:13.209Z,15.74
2022-10-08T14:59:41.205Z,15.90
2022-10-08T15:02:10.298Z,15.83
2022-10-08T15:04:38.186Z,15.68
2022-10-08T15:07:07.297Z,15.77
2022-10-08T15:09:37.042Z,15.82
2022-10-08T15:12:04.974Z,15.70
2022-10-08T15:14:37.807Z,15.70
2022-10-08T15:17:06.534Z,15.69
2022-10-08T15:19:34.248Z,15.79
2022-10-08T15:22:01.933Z,15.49
2022-10-08T15:24:30.961Z,15.63
2022-10-08T15:26:58.682Z,15.57
2022-10-08T15:29:28.540Z,15.70
2022-10-08T15:31:56.295Z,15.55
2022-10-08T15:34:24.041Z,15.31
2022-10-08T15:36:55.025Z,15.56
2022-10-08T15:39:22.984Z,15.58
2022-10-08T15:41:53.349Z,15.67
2022-10-08T15:44:27.080Z,15.50
2022-10-08T15:47:03.571Z,15.55
2022-10-08T15:49:32.199Z,15.71
2022-10-08T15:52:00.497Z,15.71
2022-10-08T15:54:28.198Z,15.60
2022-10-08T15:56:57.212Z,15.76
2022-10-08T15:59:24.845Z,15.63
2022-10-08T16:01:52.500Z,15.55
2022-10-08T16:04:20.143Z,15.48
2022-10-08T16:06:47.807Z,15.64
2022-10-08T16:09:17.077Z,15.38
2022-10-08T16:11:45.449Z,15.62
2022-10-08T16:14:16.680Z,15.70
2022-10-08T16:16:44.947Z,15.70
2022-10-08T16:19:16.024Z,15.77
2022-10-08T16:21:45.478Z,15.80
2022-10-08T16:24:13.709Z,15.71
2022-10-08T16:26:42.294Z,15.73
2022-10-08T16:29:12.669Z,15.80
2022-10-08T16:31:43.127Z,15.79
2022-10-08T16:34:13.723Z,15.81
2022-10-08T16:36:41.695Z,15.96
2022-10-08T16:39:09.903Z,15.86
2022-10-08T16:41:38.077Z,15.95
2022-10-08T16:44:11.982Z,15.96
2022-10-08T16:46:43.015Z,15.91
2022-10-08T16:49:17.269Z,15.99
2022-10-08T16:51:48.085Z,15.98
2022-10-08T16:54:17.076Z,15.86
2022-10-08T16:56:45.804Z,15.91
2022-10-08T16:59:15.215Z,15.94
2022-10-08T17:01:45.924Z,15.93
2022-10-08T17:04:14.357Z,15.91
2022-10-08T17:06:42.217Z,15.85
2022-10-08T17:09:09.955Z,15.88
2022-10-08T17:11:37.631Z,15.85
2022-10-08T17:14:07.489Z,15.93
2022-10-08T17:16:36.244Z,15.86
2022-10-08T17:19:06.152Z,15.58
2022-10-08T17:21:43.749Z,15.78
2022-10-08T17:24:12.474Z,15.43
2022-10-08T17:26:41.687Z,15.55
2022-10-08T17:29:12.442Z,15.24
2022-10-08T17:31:40.603Z,15.01
2022-10-08T17:34:12.309Z,15.26
2022-10-08T17:36:44.019Z,15.54
2022-10-08T17:39:13.672Z,15.43
2022-10-08T17:41:42.594Z,15.48
2022-10-08T17:44:11.066Z,15.51
2022-10-08T17:46:41.544Z,15.39
2022-10-08T17:49:09.304Z,15.50
2022-10-08T17:51:36.959Z,15.42
2022-10-08T17:54:12.376Z,15.38
2022-10-08T17:56:40.652Z,15.40
2022-10-08T17:59:08.712Z,15.52
2022-10-08T18:01:40.224Z,15.44
2022-10-08T18:04:13.586Z,15.49
2022-10-08T18:06:42.432Z,15.42
2022-10-08T18:09:13.634Z,15.30
2022-10-08T18:11:43.619Z,15.17
2022-10-08T18:14:11.650Z,15.38
2022-10-08T18:16:40.348Z,15.28
2022-10-08T18:19:10.484Z,15.38
2022-10-08T18:21:38.225Z,15.37
2022-10-08T18:24:06.185Z,15.41
2022-10-08T18:26:36.812Z,15.46
2022-10-08T18:29:08.788Z,15.43
2022-10-08T18:31:36.972Z,15.35
2022-10-08T18:34:06.296Z,15.36
2022-10-08T18:36:35.201Z,15.38
2022-10-08T18:39:08.284Z,15.42
2022-10-08T18:41:38.827Z,15.42
2022-10-08T18:44:07.177Z,15.41
2022-10-08T18:46:35.790Z,15.44
2022-10-08T18:49:08.904Z,15.43
2022-10-08T18:51:36.586Z,15.40
2022-10-08T18:54:06.705Z,15.39
2022-10-08T18:56:39.216Z,15.32
2022-10-08T18:59:08.506Z,15.39
2022-10-08T19:01:38.464Z,15.31
2022-10-08T19:04:08.341Z,15.28
2022-10-08T19:06:38.894Z,15.19
2022-10-08T19:09:12.494Z,15.14
2022-10-08T19:11:44.922Z,15.05
2022-10-08T19:14:14.451Z,15.22
2022-10-08T19:16:42.164Z,15.29
2022-10-08T19:19:14.007Z,15.22
2022-10-08T19:21:41.700Z,15.13
2022-10-08T19:24:14.602Z,15.21
2022-10-08T19:26:43.708Z,15.18
2022-10-08T19:29:15.161Z,15.15
2022-10-08T19:31:43.442Z,15.19
2022-10-08T19:34:13.533Z,15.15
2022-10-08T19:36:41.576Z,15.21
2022-10-08T19:39:12.373Z,15.22
2022-10-08T19:41:40.844Z,14.96
2022-10-08T19:44:11.500Z,15.23
2022-10-08T19:46:39.630Z,15.18
2022-10-08T19:49:08.592Z,15.26
2022-10-08T19:51:36.952Z,15.13
2022-10-08T19:54:05.495Z,15.06
2022-10-08T19:56:36.949Z,15.06
2022-10-08T19:59:06.558Z,15.13
2022-10-08T20:01:37.387Z,15.14
2022-10-08T20:04:06.046Z,15.09
2022-10-08T20:06:36.062Z,15.09
2022-10-08T20:09:05.287Z,15.18
2022-10-08T20:11:33.609Z,15.14
2022-10-08T20:14:03.001Z,15.11
2022-10-08T20:16:32.025Z,15.05
2022-10-08T20:19:04.956Z,15.06
2022-10-08T20:21:38.192Z,15.02
2022-10-08T20:24:06.939Z,14.99
2022-10-08T20:26:36.101Z,15.02
2022-10-08T20:29:06.317Z,14.97
2022-10-08T20:31:35.758Z,14.98
2022-10-08T20:34:10.883Z,14.97
2022-10-08T20:36:38.613Z,15.08
2022-10-08T20:39:06.784Z,14.97
2022-10-08T20:41:34.519Z,15.00
2022-10-08T20:44:03.919Z,14.92
2022-10-08T20:46:32.406Z,14.97
2022-10-08T20:49:00.388Z,14.94
2022-10-08T20:51:30.280Z,14.94
2022-10-08T20:53:59.124Z,15.00
2022-10-08T20:56:27.484Z,14.91
2022-10-08T20:58:55.753Z,14.94
2022-10-08T21:01:26.164Z,14.93
2022-10-08T21:03:54.661Z,14.86
2022-10-08T21:06:23.744Z,14.86
2022-10-08T21:08:54.258Z,14.82
2022-10-08T21:11:23.383Z,14.85
2022-10-08T21:13:51.360Z,14.83
2022-10-08T21:16:21.755Z,14.81
2022-10-08T21:18:50.463Z,14.83
2022-10-08T21:21:18.348Z,14.85
2022-10-08T21:23:46.104Z,14.88
2022-10-08T21:26:17.167Z,14.61
2022-10-08T21:28:46.572Z,14.73
2022-10-08T21:31:15.634Z,14.80
2022-10-08T21:33:45.225Z,14.78
2022-10-08T21:36:15.152Z,14.78
2022-10-08T21:38:43.243Z,14.72
2022-10-08T21:41:12.621Z,14.68
2022-10-08T21:43:43.009Z,14.62
2022-10-08T21:46:12.195Z,14.72
2022-10-08T21:48:39.946Z,14.62
2022-10-08T21:51:08.937Z,14.65
2022-10-08T21:53:38.202Z,14.66
2022-10-08T21:56:08.192Z,14.70
2022-10-08T21:58:39.799Z,14.73
2022-10-08T22:01:10.052Z,14.65
2022-10-08T22:03:38.257Z,14.65
2022-10-08T22:06:05.979Z,14.67
2022-10-08T22:08:33.642Z,14.56
2022-10-08T22:11:01.333Z,14.60
2022-10-08T22:13:32.440Z,14.60
2022-10-08T22:16:01.583Z,14.59
2022-10-08T22:18:32.838Z,14.55
2022-10-08T22:21:02.272Z,14.64
2022-10-08T22:23:30.078Z,14.57
2022-10-08T22:25:59.163Z,14.50
2022-10-08T22:28:27.925Z,14.49
2022-10-08T22:30:56.196Z,14.44
2022-10-08T22:33:23.863Z,14.37
2022-10-08T22:35:52.866Z,14.38
2022-10-08T22:38:20.524Z,14.38
2022-10-08T22:40:48.173Z,14.41
2022-10-08T22:43:16.153Z,14.40
2022-10-08T22:45:44.210Z,14.36
2022-10-08T22:48:11.864Z,14.27
2022-10-08T22:50:39.509Z,14.41
2022-10-08T22:53:08.600Z,14.39
2022-10-08T22:55:40.698Z,14.34
2022-10-08T22:58:08.454Z,14.41
2022-10-08T23:00:36.109Z,14.34
2022-10-08T23:03:05.316Z,14.43
2022-10-08T23:05:33.100Z,14.44
2022-10-08T23:08:00.741Z,14.35
2022-10-08T23:10:30.424Z,14.30
2022-10-08T23:12:58.088Z,14.17
2022-10-08T23:15:25.903Z,14.26
2022-10-08T23:17:53.541Z,14.26
2022-10-08T23:20:27.139Z,14.22
2022-10-08T23:22:54.779Z,14.24
2022-10-08T23:25:22.446Z,14.23
2022-10-08T23:27:51.577Z,14.17
2022-10-08T23:30:41.742Z,14.18
2022-10-08T23:33:06.874Z,14.21
2022-10-08T23:35:34.559Z,14.20
2022-10-08T23:38:02.279Z,14.17
2022-10-08T23:40:29.997Z,14.15
2022-10-08T23:42:59.005Z,14.13
2022-10-08T23:45:26.753Z,14.12
2022-10-08T23:47:54.458Z,14.16
2022-10-08T23:50:22.141Z,14.11
2022-10-08T23:52:50.293Z,14.13
2022-10-08T23:55:18.191Z,14.16
2022-10-08T23:57:45.868Z,14.09
